Tuesday, October 17, 2017, 2:55 PM EDT
Back to Local

KIDI, Indiana / Stewart Field

Location: Indiana, PA, United States Lat: 40.633
Local Time: 2:55 PM EDT (18:55 GMT) Lon: -79.1
Time Zone: US/Eastern Elev: 1407 ft

Show me the last for .
Show Coded

Time T Td Feel RH Dir Speed Gust Alt SLP Vis Weather Sky Remarks
2017-10-17 14:35 57 39 - 50 270° 10 - 30.31 - 10 CLR None
2017-10-17 14:15 57 39 - 50 280° 7 - 30.31 - 10 CLR None
2017-10-17 13:55 57 39 - 50 270° 9 - 30.32 - 10 CLR None
2017-10-17 13:35 55 39 - 54 - Calm 12 30.33 - 10 CLR None
2017-10-17 13:15 55 41 - 58 270° 9 - 30.34 - 10 CLR None
2017-10-17 12:55 55 39 - 54 250° 9 - 30.35 - 10 CLR None
2017-10-17 12:35 54 41 - 62 Variable 7 14 30.36 - 10 CLR None
2017-10-17 12:15 54 39 - 58 250° 9 - 30.37 - 10 CLR None
2017-10-17 11:55 52 39 - 62 Variable 7 - 30.37 - 10 CLR None
2017-10-17 11:35 52 39 - 62 250° 7 - 30.38 - 10 CLR None
2017-10-17 11:15 50 39 47 66 Variable 7 - 30.38 - 10 CLR None
2017-10-17 10:55 50 41 47 71 240° 7 - 30.38 - 10 CLR None
2017-10-17 10:35 48 39 45 70 220° 7 - 30.38 - 10 CLR None
2017-10-17 10:15 46 39 42 75 230° 8 - 30.38 - 10 CLR None
2017-10-17 09:55 45 39 40 81 220° 8 - 30.39 - 10 CLR None
2017-10-17 09:35 43 39 39 86 230° 6 - 30.39 - 10 CLR None
2017-10-17 09:15 41 39 - 93 - Calm - 30.39 - 10 CLR None
2017-10-17 08:55 37 37 - 100 - Calm - 30.39 - 10 CLR None
2017-10-17 08:35 34 34 - 100 - Calm - 30.38 - 5 BR CLR None
2017-10-17 08:15 34 34 - 100 - Calm - 30.38 - 0 BR VV005 Variable visibility
2017-10-17 07:55 32 32 - 100 - Calm - 30.37 - 0 BR VV005 None
2017-10-17 07:35 32 32 - 100 - Calm - 30.37 - 0 FG BKN001 None
2017-10-17 07:15 32 32 - 100 - Calm - 30.37 - 2 BR SCT001 None
2017-10-17 06:55 32 32 - 100 - Calm - 30.37 - 1 BR CLR None
2017-10-17 06:35 34 34 - 100 - Calm - 30.37 - 1 BR CLR Variable visibility
2017-10-17 06:15 34 34 - 100 - Calm - 30.36 - 8 CLR None
2017-10-17 05:55 34 34 - 100 - Calm - 30.36 - 10 CLR None
2017-10-17 05:35 34 34 - 100 - Calm - 30.35 - 9 CLR None
2017-10-17 05:15 34 32 - 93 - Calm - 30.34 - 10 CLR None
2017-10-17 04:55 34 34 - 100 - Calm - 30.34 - 10 CLR None
2017-10-17 04:35 34 34 - 100 - Calm - 30.33 - 10 CLR None
2017-10-17 04:15 34 34 - 100 - Calm - 30.33 - 10 CLR None
2017-10-17 03:55 34 34 - 100 - Calm - 30.33 - 10 CLR None
2017-10-17 03:35 34 34 - 100 - Calm - 30.32 - 10 CLR None
2017-10-17 03:15 36 34 - 93 - Calm - 30.33 - 10 CLR None
2017-10-17 02:55 34 34 - 100 - Calm - 30.32 - 10 CLR None
2017-10-17 02:35 36 34 - 93 - Calm - 30.32 - 10 CLR None
2017-10-17 02:15 36 36 - 100 - Calm - 30.31 - 10 CLR None
2017-10-17 01:55 36 36 - 100 - Calm - 30.31 - 10 CLR None
2017-10-17 01:35 36 36 - 100 - Calm - 30.31 - 10 CLR None
2017-10-17 01:15 36 36 - 100 - Calm - 30.31 - 10 CLR None
2017-10-17 00:55 36 36 - 100 - Calm - 30.30 - 10 CLR None
2017-10-17 00:35 36 36 - 100 - Calm - 30.31 - 10 CLR None
2017-10-17 00:15 37 36 - 93 - Calm - 30.31 - 10 CLR None
2017-10-16 23:55 37 36 - 93 - Calm - 30.31 - 10 CLR None
2017-10-16 23:35 37 36 - 93 - Calm - 30.31 - 10 CLR None
2017-10-16 23:15 37 36 - 93 - Calm - 30.32 - 10 CLR None
2017-10-16 22:55 39 36 - 86 - Calm - 30.32 - 10 CLR None
2017-10-16 22:35 39 36 - 86 - Calm - 30.32 - 10 CLR None
2017-10-16 22:15 39 37 - 93 - Calm - 30.31 - 10 CLR None
2017-10-16 21:55 41 37 - 86 - Calm - 30.31 - 10 CLR None
2017-10-16 21:35 41 37 - 86 - Calm - 30.30 - 10 CLR None
2017-10-16 21:15 43 37 - 81 - Calm - 30.30 - 10 CLR None
2017-10-16 20:55 43 37 - 81 - Calm - 30.29 - 10 CLR None
2017-10-16 20:35 45 37 - 75 - Calm - 30.28 - 10 CLR None
2017-10-16 20:15 46 36 - 65 - Calm - 30.28 - 10 CLR None
2017-10-16 19:55 45 37 - 75 - Calm - 30.27 - 10 CLR None
2017-10-16 19:35 46 36 - 65 - Calm - 30.27 - 10 CLR None
2017-10-16 19:15 48 37 - 66 - Calm - 30.26 - 10 CLR None
2017-10-16 18:55 48 37 47 66 350° 3 - 30.26 - 10 CLR None
2017-10-16 18:35 48 37 47 66 330° 3 - 30.25 - 10 CLR None
2017-10-16 18:15 50 36 47 57 350° 8 - 30.25 - 10 SCT048 None
2017-10-16 17:55 52 37 - 57 350° 9 - 30.24 - 10 BKN046 None
2017-10-16 17:35 52 36 - 53 350° 6 15 30.24 - 10 CLR None
2017-10-16 17:15 54 37 - 54 350° 8 17 30.23 - 10 CLR None
2017-10-16 16:55 54 37 - 54 350° 12 17 30.23 - 10 CLR None
2017-10-16 16:35 54 41 - 62 350° 9 15 30.23 - 10 CLR None
2017-10-16 16:15 52 39 - 62 340° 14 - 30.23 - 10 FEW032 FEW039 SCT050 None
2017-10-16 15:55 54 39 - 58 360° 9 18 30.23 - 10 FEW038 FEW055 SCT070 None
2017-10-16 15:35 54 39 - 58 360° 9 18 30.22 - 10 SCT055 BKN065 None
2017-10-16 15:15 54 39 - 58 310° 10 21 30.22 - 10 BKN060 OVC070 None

Support USWX by starting your Amazon purchase here.